Time;durP1;ratioP1;P1;durP2;ratioP2;P2;SDS_P1;SDS_P2;PMS_P1;PMS_P2;Temp;Humidity;BMP_temperature;BMP_pressure;BME280_temperature;BME280_humidity;BME280_pressure;Samples;Min_cycle;Max_cycle;Signal;HPM_P1;HPM_P2
2023/02/06 00:02:48;;;;;;;2.10;1.40;;;;;;;;;;6262099;28;20477;-77
2023/02/06 00:05:56;;;;;;;2.67;2.03;;;;;;;;;;6261561;28;20290;-77
2023/02/06 00:09:02;;;;;;;1.60;1.50;;;;;;;;;;6260883;28;20296;-77
2023/02/06 00:12:07;;;;;;;3.17;1.93;;;;;;;;;;6261573;28;20353;-77
2023/02/06 00:15:12;;;;;;;1.60;1.50;;;;;;;;;;6260609;28;20295;-78
2023/02/06 00:18:18;;;;;;;2.30;1.70;;;;;;;;;;6261851;28;20295;-77
2023/02/06 00:21:26;;;;;;;1.70;1.60;;;;;;;;;;6262465;28;20370;-77
2023/02/06 00:24:31;;;;;;;1.67;1.60;;;;;;;;;;6260581;28;20307;-78
2023/02/06 00:27:36;;;;;;;2.57;1.50;;;;;;;;;;6262267;28;20301;-77
2023/02/06 00:30:41;;;;;;;2.10;1.60;;;;;;;;;;6261595;28;20308;-77
2023/02/06 00:33:47;;;;;;;1.33;1.33;;;;;;;;;;6261496;28;20300;-77
2023/02/06 00:36:53;;;;;;;1.50;1.40;;;;;;;;;;6262131;28;20292;-77
2023/02/06 00:39:58;;;;;;;1.60;1.60;;;;;;;;;;6260162;28;20307;-78
2023/02/06 00:43:04;;;;;;;1.83;1.40;;;;;;;;;;6261722;28;20288;-78
2023/02/06 00:46:10;;;;;;;2.00;1.80;;;;;;;;;;6260555;28;20291;-77
2023/02/06 00:49:16;;;;;;;1.67;1.50;;;;;;;;;;6261554;28;20596;-77
2023/02/06 00:52:23;;;;;;;1.70;1.60;;;;;;;;;;6261704;28;20300;-77
2023/02/06 00:55:33;;;;;;;1.73;1.60;;;;;;;;;;6260913;28;20326;-77
2023/02/06 00:58:39;;;;;;;1.70;1.60;;;;;;;;;;6261109;28;20300;-77
2023/02/06 01:01:44;;;;;;;1.67;1.60;;;;;;;;;;6260080;28;20312;-77
2023/02/06 01:04:49;;;;;;;1.27;1.27;;;;;;;;;;6259751;28;20296;-77
2023/02/06 01:07:56;;;;;;;1.67;1.57;;;;;;;;;;6258890;28;20275;-77
2023/02/06 01:11:10;;;;;;;1.67;1.57;;;;;;;;;;6243734;28;20454;-77
2023/02/06 01:14:15;;;;;;;2.00;1.50;;;;;;;;;;6260452;28;20295;-78
2023/02/06 01:17:21;;;;;;;1.47;1.47;;;;;;;;;;6259754;28;20591;-77
2023/02/06 01:20:26;;;;;;;1.57;1.47;;;;;;;;;;6259136;28;20310;-78
2023/02/06 01:23:32;;;;;;;1.10;1.10;;;;;;;;;;6260599;28;20303;-78
2023/02/06 01:26:38;;;;;;;3.40;1.50;;;;;;;;;;6260955;28;20291;-77
2023/02/06 01:29:43;;;;;;;1.23;1.23;;;;;;;;;;6263194;28;20298;-77
2023/02/06 01:32:48;;;;;;;1.47;1.43;;;;;;;;;;6277553;28;20300;-78
2023/02/06 01:35:56;;;;;;;1.20;1.20;;;;;;;;;;6259589;28;20301;-78
2023/02/06 01:39:02;;;;;;;1.50;1.30;;;;;;;;;;6260478;28;20614;-77
2023/02/06 01:42:09;;;;;;;1.50;1.40;;;;;;;;;;6260345;28;20299;-78
2023/02/06 01:45:36;;;;;;;2.33;1.40;;;;;;;;;;6260258;28;20307;-77
2023/02/06 01:48:45;;;;;;;2.33;1.20;;;;;;;;;;6260162;28;20297;-77
2023/02/06 01:51:52;;;;;;;1.87;1.50;;;;;;;;;;6260312;28;20295;-79
2023/02/06 01:55:01;;;;;;;3.80;1.17;;;;;;;;;;6260192;28;20294;-77
2023/02/06 01:58:07;;;;;;;2.03;1.50;;;;;;;;;;6258025;28;20295;-77
2023/02/06 02:01:13;;;;;;;3.07;1.50;;;;;;;;;;6243288;28;20292;-78
2023/02/06 02:04:20;;;;;;;1.30;1.30;;;;;;;;;;6264415;23;20307;-80
2023/02/06 02:07:26;;;;;;;4.07;1.20;;;;;;;;;;6231019;28;20286;-79
2023/02/06 02:10:33;;;;;;;1.40;1.30;;;;;;;;;;6234195;28;20304;-80
2023/02/06 02:13:39;;;;;;;1.47;1.47;;;;;;;;;;6235461;28;20293;-79
2023/02/06 02:16:52;;;;;;;2.37;1.60;;;;;;;;;;6239633;28;20291;-81
2023/02/06 02:20:26;;;;;;;1.20;1.20;;;;;;;;;;6237339;28;20304;-79
2023/02/06 02:23:36;;;;;;;2.43;1.40;;;;;;;;;;6238886;28;20292;-79
2023/02/06 02:27:12;;;;;;;1.60;1.33;;;;;;;;;;6241057;28;20292;-79
2023/02/06 02:30:42;;;;;;;1.83;1.30;;;;;;;;;;6214924;28;20371;-79
2023/02/06 02:34:06;;;;;;;1.53;1.37;;;;;;;;;;6214968;28;20304;-80
2023/02/06 02:37:19;;;;;;;1.37;1.37;;;;;;;;;;6217281;28;20289;-81
2023/02/06 02:40:28;;;;;;;3.63;1.60;;;;;;;;;;6241409;28;20304;-80
2023/02/06 02:43:40;;;;;;;2.23;1.50;;;;;;;;;;6239324;28;20292;-81
2023/02/06 02:46:48;;;;;;;1.90;1.37;;;;;;;;;;6231015;28;20299;-80
2023/02/06 02:49:55;;;;;;;1.27;1.27;;;;;;;;;;6233084;28;20289;-79
2023/02/06 02:53:03;;;;;;;1.20;1.20;;;;;;;;;;6239079;28;20288;-81
2023/02/06 02:56:18;;;;;;;1.63;1.53;;;;;;;;;;6222891;28;20304;-79
2023/02/06 02:59:28;;;;;;;2.43;1.40;;;;;;;;;;6255828;28;20395;-81
2023/02/06 03:02:36;;;;;;;1.53;1.43;;;;;;;;;;6238982;28;20292;-80
2023/02/06 03:05:54;;;;;;;3.07;1.30;;;;;;;;;;6236640;28;20303;-79
2023/02/06 03:09:09;;;;;;;2.23;1.50;;;;;;;;;;6240044;28;20293;-80
2023/02/06 03:12:20;;;;;;;1.67;1.20;;;;;;;;;;6240270;28;20295;-80
2023/02/06 03:15:30;;;;;;;2.40;1.10;;;;;;;;;;6242153;28;20302;-79
2023/02/06 03:18:41;;;;;;;3.03;1.50;;;;;;;;;;6245087;28;20292;-79
2023/02/06 03:21:55;;;;;;;1.20;1.20;;;;;;;;;;6241619;28;20584;-79
2023/02/06 03:25:03;;;;;;;1.73;1.40;;;;;;;;;;6236920;28;20298;-80
2023/02/06 03:28:17;;;;;;;1.30;1.30;;;;;;;;;;6238991;28;20587;-80
2023/02/06 03:31:27;;;;;;;1.23;1.13;;;;;;;;;;6237679;28;20300;-79
2023/02/06 03:34:37;;;;;;;1.13;1.13;;;;;;;;;;6247867;28;20292;-79
2023/02/06 03:37:43;;;;;;;5.40;1.33;;;;;;;;;;6237869;28;20611;-79
2023/02/06 03:40:51;;;;;;;1.57;1.40;;;;;;;;;;6232971;28;20293;-79
2023/02/06 03:43:57;;;;;;;1.50;1.40;;;;;;;;;;6225810;28;20293;-81
2023/02/06 03:47:17;;;;;;;1.27;1.27;;;;;;;;;;6239175;28;20576;-81
2023/02/06 03:50:24;;;;;;;1.40;1.40;;;;;;;;;;6238836;28;20301;-80
2023/02/06 03:53:31;;;;;;;4.00;1.37;;;;;;;;;;6238166;28;20293;-81
2023/02/06 03:56:41;;;;;;;1.90;1.30;;;;;;;;;;6238007;28;20574;-79
2023/02/06 03:59:50;;;;;;;2.23;1.20;;;;;;;;;;6236427;28;20308;-78
2023/02/06 04:02:58;;;;;;;3.43;1.47;;;;;;;;;;6235858;28;20300;-80
2023/02/06 04:06:04;;;;;;;1.30;1.20;;;;;;;;;;6238802;28;20295;-80
2023/02/06 04:09:09;;;;;;;1.30;1.30;;;;;;;;;;6238249;28;20302;-80
2023/02/06 04:12:16;;;;;;;3.13;1.80;;;;;;;;;;6238644;28;20481;-80
2023/02/06 04:15:21;;;;;;;1.27;1.27;;;;;;;;;;6237843;28;20312;-80
2023/02/06 04:18:27;;;;;;;1.57;1.50;;;;;;;;;;6237570;28;20321;-80
2023/02/06 04:21:32;;;;;;;3.40;1.33;;;;;;;;;;6238627;28;20468;-79
2023/02/06 04:24:39;;;;;;;3.97;1.50;;;;;;;;;;6237573;28;20537;-79
2023/02/06 04:27:45;;;;;;;5.47;1.30;;;;;;;;;;6237481;28;20305;-79
2023/02/06 04:30:51;;;;;;;2.87;1.30;;;;;;;;;;6238735;28;20293;-79
2023/02/06 04:33:56;;;;;;;3.23;1.37;;;;;;;;;;6237707;28;20312;-79
2023/02/06 04:37:02;;;;;;;2.20;1.40;;;;;;;;;;6237949;28;20308;-80
2023/02/06 04:40:08;;;;;;;5.10;1.40;;;;;;;;;;6237875;28;20292;-79
2023/02/06 04:43:16;;;;;;;2.30;1.37;;;;;;;;;;6237823;28;20300;-80
2023/02/06 04:46:22;;;;;;;4.77;1.40;;;;;;;;;;6237799;28;20297;-79
2023/02/06 04:49:27;;;;;;;3.63;1.30;;;;;;;;;;6237605;28;20324;-79
2023/02/06 04:52:32;;;;;;;4.30;1.20;;;;;;;;;;6237012;28;20295;-80
2023/02/06 04:55:38;;;;;;;2.00;1.20;;;;;;;;;;6237961;28;20553;-79
2023/02/06 04:58:45;;;;;;;3.40;1.53;;;;;;;;;;6237516;28;20295;-79
2023/02/06 05:01:50;;;;;;;1.47;1.37;;;;;;;;;;6240085;28;20290;-79
2023/02/06 05:04:55;;;;;;;1.50;1.40;;;;;;;;;;6235308;28;20316;-79
2023/02/06 05:08:01;;;;;;;3.67;2.00;;;;;;;;;;6241763;28;20299;-80
2023/02/06 05:11:07;;;;;;;2.97;1.67;;;;;;;;;;6237302;28;20569;-81
2023/02/06 05:14:14;;;;;;;1.90;1.33;;;;;;;;;;6236614;28;20312;-81
2023/02/06 05:17:19;;;;;;;3.93;1.43;;;;;;;;;;6237630;28;20292;-80
2023/02/06 05:20:24;;;;;;;1.57;1.37;;;;;;;;;;6236956;28;20295;-80
2023/02/06 05:23:31;;;;;;;3.30;1.57;;;;;;;;;;6236273;28;20292;-80
2023/02/06 05:26:36;;;;;;;1.50;1.40;;;;;;;;;;6237659;28;20296;-81
2023/02/06 05:29:43;;;;;;;4.50;1.50;;;;;;;;;;6235572;28;20285;-80
2023/02/06 05:32:48;;;;;;;2.60;1.50;;;;;;;;;;6251467;28;20298;-79
2023/02/06 05:35:54;;;;;;;4.83;1.30;;;;;;;;;;6235975;28;20295;-81
2023/02/06 05:39:03;;;;;;;1.50;1.40;;;;;;;;;;6236258;28;20328;-82
2023/02/06 05:42:08;;;;;;;5.17;1.50;;;;;;;;;;6237244;28;20378;-78
2023/02/06 05:45:15;;;;;;;2.60;1.40;;;;;;;;;;6236831;28;20297;-80
2023/02/06 05:48:21;;;;;;;4.33;1.70;;;;;;;;;;6218276;28;20293;-80
2023/02/06 05:51:27;;;;;;;1.93;1.83;;;;;;;;;;6236830;28;20299;-81
2023/02/06 05:54:33;;;;;;;3.83;1.30;;;;;;;;;;6235598;28;20298;-81
2023/02/06 05:57:38;;;;;;;2.00;1.70;;;;;;;;;;6238301;28;20298;-80
2023/02/06 06:00:50;;;;;;;6.63;1.83;;;;;;;;;;6237540;28;20295;-80
2023/02/06 06:03:56;;;;;;;4.67;1.53;;;;;;;;;;6235594;28;20324;-80
2023/02/06 06:07:01;;;;;;;2.30;1.27;;;;;;;;;;6236018;28;20423;-80
2023/02/06 06:10:08;;;;;;;2.33;1.20;;;;;;;;;;6236063;28;20395;-80
2023/02/06 06:13:17;;;;;;;5.33;1.73;;;;;;;;;;6235689;28;20590;-82
2023/02/06 06:16:26;;;;;;;1.97;1.40;;;;;;;;;;6235758;28;20299;-79
2023/02/06 06:19:31;;;;;;;2.50;1.50;;;;;;;;;;6235968;28;20310;-80
2023/02/06 06:22:36;;;;;;;1.50;1.40;;;;;;;;;;6235702;28;20291;-79
2023/02/06 06:25:42;;;;;;;4.23;1.60;;;;;;;;;;6236525;28;20301;-82
2023/02/06 06:28:48;;;;;;;2.27;1.67;;;;;;;;;;6210149;28;20297;-79
2023/02/06 06:31:54;;;;;;;6.57;1.60;;;;;;;;;;6237136;28;20291;-79
2023/02/06 06:35:01;;;;;;;5.13;1.30;;;;;;;;;;6237231;28;20631;-82
2023/02/06 06:38:06;;;;;;;3.70;1.70;;;;;;;;;;6235802;28;20300;-81
2023/02/06 06:41:12;;;;;;;3.53;1.70;;;;;;;;;;6251160;28;20308;-80
2023/02/06 06:44:17;;;;;;;3.73;1.60;;;;;;;;;;6235777;28;20579;-80
2023/02/06 06:47:24;;;;;;;1.70;1.53;;;;;;;;;;6236291;28;20596;-80
2023/02/06 06:50:32;;;;;;;2.10;1.60;;;;;;;;;;6245686;28;20452;-80
2023/02/06 06:53:38;;;;;;;1.30;1.30;;;;;;;;;;6216681;28;20295;-79
2023/02/06 06:56:44;;;;;;;3.93;1.83;;;;;;;;;;6239516;28;20293;-81
2023/02/06 06:59:49;;;;;;;4.27;1.40;;;;;;;;;;6235879;28;20299;-80
2023/02/06 07:02:55;;;;;;;4.00;1.50;;;;;;;;;;6245247;28;20292;-79
2023/02/06 07:06:03;;;;;;;1.83;1.33;;;;;;;;;;6238114;28;20299;-81
2023/02/06 07:09:07;;;;;;;2.47;1.73;;;;;;;;;;6245080;28;20299;-80
2023/02/06 07:12:13;;;;;;;3.17;1.60;;;;;;;;;;6227559;28;20292;-81
2023/02/06 07:15:18;;;;;;;3.97;1.70;;;;;;;;;;6238190;28;20609;-80
2023/02/06 07:18:25;;;;;;;2.77;1.60;;;;;;;;;;6238199;28;20305;-80
2023/02/06 07:21:31;;;;;;;1.80;1.70;;;;;;;;;;6230633;28;20299;-80
2023/02/06 07:24:38;;;;;;;9.63;2.30;;;;;;;;;;6229440;28;20303;-81
2023/02/06 07:27:43;;;;;;;5.73;1.63;;;;;;;;;;6239785;28;20300;-80
2023/02/06 07:30:50;;;;;;;2.43;1.60;;;;;;;;;;6239879;28;20291;-80
2023/02/06 07:33:56;;;;;;;2.40;1.80;;;;;;;;;;6239503;28;20298;-81
2023/02/06 07:37:05;;;;;;;2.10;1.63;;;;;;;;;;6239788;28;20303;-79
2023/02/06 07:40:14;;;;;;;1.50;1.40;;;;;;;;;;6238980;28;20295;-79
2023/02/06 07:43:19;;;;;;;2.93;1.50;;;;;;;;;;6236694;28;20299;-80
2023/02/06 07:46:27;;;;;;;6.00;2.33;;;;;;;;;;6233668;28;20467;-80
2023/02/06 07:49:34;;;;;;;5.07;1.90;;;;;;;;;;6235083;28;20494;-80
2023/02/06 07:52:39;;;;;;;3.90;1.43;;;;;;;;;;6238813;28;20602;-79
2023/02/06 07:55:44;;;;;;;2.30;1.63;;;;;;;;;;6239564;28;20608;-79
2023/02/06 07:58:51;;;;;;;2.27;1.60;;;;;;;;;;6242512;28;20300;-81
2023/02/06 08:01:56;;;;;;;2.73;1.60;;;;;;;;;;6238941;28;20283;-81
2023/02/06 08:05:03;;;;;;;5.40;2.10;;;;;;;;;;6237539;28;20305;-80
2023/02/06 08:08:10;;;;;;;1.43;1.20;;;;;;;;;;6239640;28;20292;-79
2023/02/06 08:11:19;;;;;;;7.33;1.93;;;;;;;;;;6237494;28;20299;-79
2023/02/06 08:14:27;;;;;;;7.20;1.73;;;;;;;;;;6238643;28;20598;-80
2023/02/06 08:21:01;;;;;;;2.97;1.87;;;;;;;;;;6244851;28;20302;-79
2023/02/06 08:24:08;;;;;;;3.93;1.70;;;;;;;;;;6226726;28;20307;-80
2023/02/06 08:27:13;;;;;;;3.03;1.80;;;;;;;;;;6238510;28;20480;-81
2023/02/06 08:30:18;;;;;;;3.33;2.13;;;;;;;;;;6235687;28;20304;-80
2023/02/06 08:33:24;;;;;;;2.80;1.87;;;;;;;;;;6238234;28;20478;-81
2023/02/06 08:36:32;;;;;;;6.93;1.77;;;;;;;;;;6238417;28;20297;-81
2023/02/06 08:39:38;;;;;;;2.33;1.80;;;;;;;;;;6237464;28;20301;-81
2023/02/06 08:42:43;;;;;;;3.77;1.77;;;;;;;;;;6237226;28;20378;-80
2023/02/06 08:45:51;;;;;;;4.20;1.63;;;;;;;;;;6237895;28;20300;-81
2023/02/06 08:48:57;;;;;;;3.50;2.03;;;;;;;;;;6232741;28;20301;-81
2023/02/06 08:52:07;;;;;;;3.50;1.73;;;;;;;;;;6238495;28;20288;-81
2023/02/06 08:55:13;;;;;;;2.43;1.80;;;;;;;;;;6236712;28;20300;-86
2023/02/06 08:58:19;;;;;;;6.33;1.80;;;;;;;;;;6237420;28;20304;-83
2023/02/06 09:01:25;;;;;;;3.83;1.70;;;;;;;;;;6239440;28;20467;-84
2023/02/06 09:04:33;;;;;;;5.73;1.83;;;;;;;;;;6237085;28;20303;-80
2023/02/06 09:07:40;;;;;;;4.83;2.13;;;;;;;;;;6236390;28;20298;-79
2023/02/06 09:10:49;;;;;;;2.93;1.90;;;;;;;;;;6236353;28;20308;-80
2023/02/06 09:13:57;;;;;;;1.80;1.67;;;;;;;;;;6220006;28;20304;-80
2023/02/06 09:17:03;;;;;;;4.93;2.50;;;;;;;;;;6237123;28;20271;-78
2023/02/06 09:20:11;;;;;;;1.87;1.77;;;;;;;;;;6246136;28;20293;-87
2023/02/06 09:23:18;;;;;;;3.50;2.20;;;;;;;;;;6231632;28;20298;-81
2023/02/06 09:26:26;;;;;;;7.80;2.17;;;;;;;;;;6236322;28;20292;-87
2023/02/06 09:29:32;;;;;;;5.57;1.90;;;;;;;;;;6235207;28;20292;-82
2023/02/06 09:32:37;;;;;;;8.07;2.07;;;;;;;;;;6252716;28;20288;-77
2023/02/06 09:35:43;;;;;;;3.43;2.13;;;;;;;;;;6235997;28;20305;-79
2023/02/06 09:38:52;;;;;;;6.80;2.27;;;;;;;;;;6236835;28;20301;-77
2023/02/06 09:42:03;;;;;;;3.50;1.70;;;;;;;;;;6236169;28;20297;-78
2023/02/06 09:45:13;;;;;;;5.70;2.10;;;;;;;;;;6235954;28;20615;-78
2023/02/06 09:48:20;;;;;;;3.43;2.27;;;;;;;;;;6234431;28;20302;-77
2023/02/06 09:51:32;;;;;;;7.13;2.47;;;;;;;;;;6234952;28;20474;-77
2023/02/06 09:54:46;;;;;;;3.33;2.23;;;;;;;;;;6236076;28;20297;-78
2023/02/06 09:57:57;;;;;;;6.20;2.20;;;;;;;;;;6236123;28;20289;-79
2023/02/06 10:01:08;;;;;;;5.13;2.10;;;;;;;;;;6235819;28;20343;-83
2023/02/06 10:04:35;;;;;;;8.03;2.20;;;;;;;;;;6235793;28;20306;-81
2023/02/06 10:07:56;;;;;;;3.53;1.97;;;;;;;;;;6226560;28;20373;-82
2023/02/06 10:11:06;;;;;;;3.03;2.30;;;;;;;;;;6224279;28;20334;-81
2023/02/06 10:14:21;;;;;;;2.87;2.00;;;;;;;;;;6212135;28;20295;-84
2023/02/06 10:17:44;;;;;;;3.67;1.87;;;;;;;;;;6211283;28;20314;-84
2023/02/06 10:20:51;;;;;;;8.73;2.00;;;;;;;;;;6211658;28;20306;-78
2023/02/06 10:24:02;;;;;;;2.07;1.93;;;;;;;;;;6211018;28;20302;-80
2023/02/06 10:27:12;;;;;;;5.60;2.20;;;;;;;;;;6211843;28;20491;-79
2023/02/06 10:30:19;;;;;;;3.60;1.90;;;;;;;;;;6211378;28;20318;-80
2023/02/06 10:33:29;;;;;;;9.23;2.40;;;;;;;;;;6212853;28;20297;-79
2023/02/06 10:36:48;;;;;;;2.57;2.17;;;;;;;;;;6212346;28;20299;-79
2023/02/06 10:40:10;;;;;;;2.40;1.90;;;;;;;;;;6210314;28;20344;-81
2023/02/06 10:43:24;;;;;;;3.10;2.00;;;;;;;;;;6215671;28;20306;-80
2023/02/06 10:46:40;;;;;;;8.87;2.77;;;;;;;;;;6215271;28;20471;-80
2023/02/06 10:49:48;;;;;;;4.20;2.20;;;;;;;;;;6219131;28;20299;-81
2023/02/06 10:52:54;;;;;;;5.93;2.10;;;;;;;;;;6230231;28;20303;-80
2023/02/06 10:56:03;;;;;;;5.73;2.17;;;;;;;;;;6230566;28;20467;-79
2023/02/06 10:59:22;;;;;;;3.40;1.80;;;;;;;;;;6215561;28;20584;-79
2023/02/06 11:02:32;;;;;;;6.30;2.00;;;;;;;;;;6215135;28;20300;-79
2023/02/06 11:06:16;;;;;;;3.80;1.83;;;;;;;;;;6206973;28;20306;-79
2023/02/06 11:09:42;;;;;;;4.30;1.90;;;;;;;;;;6223810;28;20306;-80
2023/02/06 11:12:59;;;;;;;5.67;2.10;;;;;;;;;;6228892;28;20295;-81
2023/02/06 11:16:08;;;;;;;9.40;1.70;;;;;;;;;;6240258;28;20341;-78
2023/02/06 11:19:19;;;;;;;5.80;1.90;;;;;;;;;;6240000;28;20618;-79
2023/02/06 11:22:29;;;;;;;2.70;1.57;;;;;;;;;;6240094;28;20299;-80
2023/02/06 11:25:40;;;;;;;5.43;1.80;;;;;;;;;;6239347;28;20299;-80
2023/02/06 11:28:52;;;;;;;3.63;1.80;;;;;;;;;;6239604;28;20298;-79
2023/02/06 11:32:00;;;;;;;3.03;1.73;;;;;;;;;;6239178;28;20271;-80
2023/02/06 11:35:21;;;;;;;5.10;1.90;;;;;;;;;;6238988;28;20485;-85
2023/02/06 11:38:29;;;;;;;3.17;2.03;;;;;;;;;;6255327;28;20364;-85
2023/02/06 11:41:35;;;;;;;2.83;1.97;;;;;;;;;;6240606;28;20299;-84
2023/02/06 11:44:42;;;;;;;4.03;2.13;;;;;;;;;;6249230;28;20254;-83
2023/02/06 11:47:52;;;;;;;5.63;1.97;;;;;;;;;;6238955;28;20295;-81
2023/02/06 11:50:57;;;;;;;2.93;1.77;;;;;;;;;;6254389;28;20297;-80
2023/02/06 11:54:05;;;;;;;4.53;1.90;;;;;;;;;;6238239;28;20299;-81
2023/02/06 11:57:22;;;;;;;8.67;2.53;;;;;;;;;;6239467;28;20292;-81
2023/02/06 12:00:28;;;;;;;7.07;2.27;;;;;;;;;;6239515;28;20288;-80
2023/02/06 12:03:38;;;;;;;11.13;1.83;;;;;;;;;;6238486;28;20308;-80
2023/02/06 12:06:45;;;;;;;6.40;2.27;;;;;;;;;;6237769;28;20301;-79
2023/02/06 12:09:51;;;;;;;3.60;1.80;;;;;;;;;;6237984;28;20288;-80
2023/02/06 12:13:06;;;;;;;4.47;1.73;;;;;;;;;;6239245;28;20298;-81
2023/02/06 12:16:14;;;;;;;4.80;2.00;;;;;;;;;;6241261;28;20297;-81
2023/02/06 12:19:30;;;;;;;4.10;1.70;;;;;;;;;;6238221;28;20304;-80
2023/02/06 12:22:40;;;;;;;6.93;1.83;;;;;;;;;;6253428;28;20304;-79
2023/02/06 12:25:50;;;;;;;4.73;2.00;;;;;;;;;;6238746;28;20592;-80
2023/02/06 12:28:59;;;;;;;3.80;1.80;;;;;;;;;;6236928;28;20295;-80
2023/02/06 12:32:08;;;;;;;6.63;2.20;;;;;;;;;;6254517;28;20276;-80
2023/02/06 12:35:20;;;;;;;5.43;1.80;;;;;;;;;;6238122;28;20291;-81
2023/02/06 12:38:37;;;;;;;5.77;1.90;;;;;;;;;;6238189;28;20292;-80
2023/02/06 12:42:06;;;;;;;5.20;1.80;;;;;;;;;;6253523;28;20292;-79
2023/02/06 12:45:20;;;;;;;9.43;1.90;;;;;;;;;;6236520;28;20343;-80
2023/02/06 12:48:28;;;;;;;7.50;1.90;;;;;;;;;;6237563;28;20297;-81
2023/02/06 12:51:39;;;;;;;3.03;1.70;;;;;;;;;;6238318;28;20479;-81
2023/02/06 12:54:48;;;;;;;2.50;1.90;;;;;;;;;;6238958;28;20603;-79
2023/02/06 12:57:53;;;;;;;7.00;2.13;;;;;;;;;;6239024;28;20295;-80
2023/02/06 13:01:21;;;;;;;2.00;1.80;;;;;;;;;;6238027;28;20307;-79
2023/02/06 13:04:37;;;;;;;9.33;2.13;;;;;;;;;;6236533;28;20326;-79
2023/02/06 13:07:44;;;;;;;8.47;2.10;;;;;;;;;;6237205;28;20305;-82
2023/02/06 13:11:03;;;;;;;4.10;2.00;;;;;;;;;;6236590;28;20279;-79
2023/02/06 13:14:16;;;;;;;4.37;2.53;;;;;;;;;;6236987;28;20300;-81
2023/02/06 13:17:23;;;;;;;4.60;2.13;;;;;;;;;;6237373;28;20284;-80
2023/02/06 13:20:28;;;;;;;4.70;1.97;;;;;;;;;;6225977;28;20303;-82
2023/02/06 13:23:50;;;;;;;10.93;2.03;;;;;;;;;;6240043;28;20298;-81
2023/02/06 13:27:09;;;;;;;3.23;2.10;;;;;;;;;;6236147;28;20303;-81
2023/02/06 13:30:33;;;;;;;3.27;2.00;;;;;;;;;;6237455;28;20288;-79
2023/02/06 13:33:40;;;;;;;3.40;1.90;;;;;;;;;;6236638;28;20303;-81
2023/02/06 13:36:51;;;;;;;3.27;1.90;;;;;;;;;;6253462;28;20288;-80
2023/02/06 13:43:37;;;;;;;4.77;1.70;;;;;;;;;;6314878;27;20309;-80
2023/02/06 13:47:20;;;;;;;5.70;1.60;;;;;;;;;;6307163;28;20555;-80
2023/02/06 13:50:35;;;;;;;5.63;2.03;;;;;;;;;;6295080;28;20579;-80
2023/02/06 13:54:15;;;;;;;3.03;1.80;;;;;;;;;;6314446;28;20297;-80
2023/02/06 13:57:40;;;;;;;5.83;2.20;;;;;;;;;;6332325;28;20296;-81
2023/02/06 14:00:49;;;;;;;3.17;1.70;;;;;;;;;;6331366;28;20538;-81
2023/02/06 14:03:56;;;;;;;5.83;1.93;;;;;;;;;;6329907;28;20485;-82
2023/02/06 14:07:16;;;;;;;9.20;2.03;;;;;;;;;;6331553;28;20289;-80
2023/02/06 14:10:37;;;;;;;2.40;1.80;;;;;;;;;;6331629;28;20288;-81
2023/02/06 14:14:13;;;;;;;4.03;1.80;;;;;;;;;;6330914;28;20338;-80
2023/02/06 14:17:33;;;;;;;3.03;2.00;;;;;;;;;;6330973;28;20610;-81
2023/02/06 14:20:48;;;;;;;2.50;1.80;;;;;;;;;;6320587;28;20621;-81
2023/02/06 14:24:06;;;;;;;5.70;2.50;;;;;;;;;;6331158;28;20297;-81
2023/02/06 14:27:25;;;;;;;7.30;2.03;;;;;;;;;;6330625;28;20595;-81
2023/02/06 14:30:36;;;;;;;2.73;2.10;;;;;;;;;;6308485;28;20297;-81
2023/02/06 14:34:03;;;;;;;4.10;1.60;;;;;;;;;;6305458;28;20302;-80
2023/02/06 14:37:38;;;;;;;1.63;1.53;;;;;;;;;;6305995;28;20300;-80
2023/02/06 14:40:45;;;;;;;4.47;1.93;;;;;;;;;;6303082;28;20459;-80
2023/02/06 14:43:51;;;;;;;5.70;1.77;;;;;;;;;;6237473;28;20629;-81
2023/02/06 14:47:00;;;;;;;3.90;1.90;;;;;;;;;;6253479;28;20437;-81
2023/02/06 14:50:07;;;;;;;6.93;1.90;;;;;;;;;;6256308;28;20296;-80
2023/02/06 14:53:19;;;;;;;1.83;1.63;;;;;;;;;;6247830;28;20315;-79
2023/02/06 14:56:28;;;;;;;6.83;2.13;;;;;;;;;;6240239;28;20294;-80
2023/02/06 14:59:34;;;;;;;7.73;1.87;;;;;;;;;;6240616;28;20308;-81
2023/02/06 15:02:39;;;;;;;4.33;2.10;;;;;;;;;;6239352;28;20583;-80
2023/02/06 15:05:46;;;;;;;4.23;2.00;;;;;;;;;;6240342;28;20615;-79
2023/02/06 15:08:53;;;;;;;6.60;2.00;;;;;;;;;;6237527;28;20306;-81
2023/02/06 15:12:00;;;;;;;2.13;1.93;;;;;;;;;;6254260;28;20308;-81
2023/02/06 15:15:17;;;;;;;1.97;1.63;;;;;;;;;;6250602;28;20304;-79
2023/02/06 15:18:23;;;;;;;4.33;1.97;;;;;;;;;;6251415;28;20296;-81
2023/02/06 15:21:37;;;;;;;4.47;2.00;;;;;;;;;;6266896;28;20299;-81
2023/02/06 15:25:04;;;;;;;4.60;2.03;;;;;;;;;;6264050;28;20303;-82
2023/02/06 15:28:17;;;;;;;6.73;2.63;;;;;;;;;;6262628;28;20569;-82
2023/02/06 15:31:22;;;;;;;8.90;2.57;;;;;;;;;;6264460;28;20299;-82
2023/02/06 15:34:28;;;;;;;3.23;2.57;;;;;;;;;;6261744;28;20298;-82
2023/02/06 15:37:36;;;;;;;10.40;3.10;;;;;;;;;;6263291;28;20303;-83
2023/02/06 15:40:46;;;;;;;7.10;3.00;;;;;;;;;;6264008;28;20322;-82
2023/02/06 15:43:52;;;;;;;4.30;2.67;;;;;;;;;;6288165;28;20302;-80
2023/02/06 15:46:58;;;;;;;6.83;2.90;;;;;;;;;;6269199;28;20277;-79
2023/02/06 15:50:11;;;;;;;6.23;2.90;;;;;;;;;;6287021;28;20298;-78
2023/02/06 15:53:27;;;;;;;8.10;3.07;;;;;;;;;;6270542;28;20297;-80
2023/02/06 15:56:35;;;;;;;7.27;2.83;;;;;;;;;;6287741;28;20298;-80
2023/02/06 15:59:41;;;;;;;5.60;2.77;;;;;;;;;;6287332;28;20294;-80
2023/02/06 16:02:48;;;;;;;7.13;3.10;;;;;;;;;;6286194;28;20470;-81
2023/02/06 16:05:57;;;;;;;7.53;3.27;;;;;;;;;;6286362;28;20281;-81
2023/02/06 16:09:07;;;;;;;5.83;3.20;;;;;;;;;;6269284;28;20300;-81
2023/02/06 16:12:15;;;;;;;8.63;2.70;;;;;;;;;;6295901;28;20588;-79
2023/02/06 16:15:30;;;;;;;6.20;2.90;;;;;;;;;;6311550;28;20300;-80
2023/02/06 16:18:36;;;;;;;7.00;2.80;;;;;;;;;;6294097;28;20298;-84
2023/02/06 16:21:42;;;;;;;3.03;2.57;;;;;;;;;;6295514;28;20298;-88
2023/02/06 16:24:52;;;;;;;6.93;2.53;;;;;;;;;;6295268;28;20304;-85
2023/02/06 16:28:01;;;;;;;3.10;2.70;;;;;;;;;;6320032;28;20275;-84
2023/02/06 16:31:10;;;;;;;3.33;2.53;;;;;;;;;;6318104;28;20295;-80
2023/02/06 16:34:30;;;;;;;3.57;2.40;;;;;;;;;;6293984;28;20301;-80
2023/02/06 16:37:38;;;;;;;2.03;2.03;;;;;;;;;;6293585;28;20476;-81
2023/02/06 16:40:44;;;;;;;8.10;2.27;;;;;;;;;;6311152;28;20430;-79
2023/02/06 16:43:50;;;;;;;7.20;2.23;;;;;;;;;;6310230;28;20308;-80
2023/02/06 16:46:55;;;;;;;5.30;2.33;;;;;;;;;;6310900;28;20285;-81
2023/02/06 16:50:00;;;;;;;5.73;2.07;;;;;;;;;;6310759;28;20295;-81
2023/02/06 16:53:18;;;;;;;2.33;2.23;;;;;;;;;;6293656;28;20294;-83
2023/02/06 16:56:28;;;;;;;3.87;2.30;;;;;;;;;;6293648;28;20568;-85
2023/02/06 16:59:34;;;;;;;2.47;1.97;;;;;;;;;;6294640;28;20475;-82
2023/02/06 17:02:45;;;;;;;2.47;2.27;;;;;;;;;;6310952;28;20300;-80
2023/02/06 17:05:52;;;;;;;3.57;2.80;;;;;;;;;;6293787;28;20297;-80
2023/02/06 17:09:02;;;;;;;5.37;3.03;;;;;;;;;;6309774;28;20297;-82
2023/02/06 17:12:14;;;;;;;6.83;3.00;;;;;;;;;;6270848;28;20293;-80
2023/02/06 17:15:20;;;;;;;3.13;2.80;;;;;;;;;;6249336;28;20304;-79
2023/02/06 17:18:25;;;;;;;7.13;3.33;;;;;;;;;;6285427;28;20293;-80
2023/02/06 17:21:32;;;;;;;7.50;3.50;;;;;;;;;;6285866;28;20293;-80
2023/02/06 17:24:38;;;;;;;3.67;3.37;;;;;;;;;;6284759;28;20301;-79
2023/02/06 17:27:47;;;;;;;4.23;3.83;;;;;;;;;;6285132;28;20297;-80
2023/02/06 17:30:52;;;;;;;5.83;3.13;;;;;;;;;;6267948;28;20298;-80
2023/02/06 17:33:58;;;;;;;4.80;2.93;;;;;;;;;;6267343;28;20604;-80
2023/02/06 17:37:03;;;;;;;3.53;3.20;;;;;;;;;;6285519;28;20294;-81
2023/02/06 17:40:11;;;;;;;3.53;3.13;;;;;;;;;;6284931;28;20296;-79
2023/02/06 17:43:18;;;;;;;4.90;3.27;;;;;;;;;;6266260;28;20301;-79
2023/02/06 17:46:25;;;;;;;8.17;3.60;;;;;;;;;;6246668;28;20290;-80
2023/02/06 17:49:30;;;;;;;6.93;3.40;;;;;;;;;;6278264;28;20297;-79
2023/02/06 17:52:35;;;;;;;7.33;3.37;;;;;;;;;;6283711;28;20291;-80
2023/02/06 17:55:44;;;;;;;4.13;2.90;;;;;;;;;;6286566;28;20547;-79
2023/02/06 17:58:51;;;;;;;4.87;3.30;;;;;;;;;;6284415;28;20308;-80
2023/02/06 18:02:00;;;;;;;4.57;2.93;;;;;;;;;;6275217;28;20453;-80
2023/02/06 18:05:06;;;;;;;6.30;3.10;;;;;;;;;;6267701;28;20631;-80
2023/02/06 18:08:17;;;;;;;6.33;3.50;;;;;;;;;;6284539;28;20588;-78
2023/02/06 18:11:24;;;;;;;6.83;3.30;;;;;;;;;;6296474;28;20466;-78
2023/02/06 18:14:30;;;;;;;4.23;3.90;;;;;;;;;;6284333;28;20610;-77
2023/02/06 18:17:36;;;;;;;3.77;3.40;;;;;;;;;;6284389;28;20294;-78
2023/02/06 18:20:41;;;;;;;7.17;3.90;;;;;;;;;;6284530;28;20293;-79
2023/02/06 18:23:49;;;;;;;10.60;4.60;;;;;;;;;;6285072;28;20303;-78
2023/02/06 18:27:01;;;;;;;12.00;5.30;;;;;;;;;;6268220;28;20480;-80
2023/02/06 18:30:10;;;;;;;18.10;7.33;;;;;;;;;;6287471;28;20373;-79
2023/02/06 18:33:18;;;;;;;13.53;7.03;;;;;;;;;;6288073;28;20300;-81
2023/02/06 18:36:26;;;;;;;21.50;8.33;;;;;;;;;;6287285;28;20296;-83
2023/02/06 18:39:32;;;;;;;28.80;9.70;;;;;;;;;;6289237;28;20289;-82
2023/02/06 18:42:53;;;;;;;18.77;8.60;;;;;;;;;;6287489;28;20292;-80
2023/02/06 18:46:07;;;;;;;23.17;6.97;;;;;;;;;;6289395;28;20306;-81
2023/02/06 18:49:12;;;;;;;14.70;5.50;;;;;;;;;;6289010;28;20387;-79
2023/02/06 18:52:17;;;;;;;6.60;4.17;;;;;;;;;;6287785;28;20292;-82
2023/02/06 18:55:23;;;;;;;9.00;4.43;;;;;;;;;;6295214;28;20303;-85
2023/02/06 18:58:30;;;;;;;8.90;4.13;;;;;;;;;;6287456;28;20300;-77
2023/02/06 19:01:39;;;;;;;6.10;4.73;;;;;;;;;;6289747;28;20288;-81
2023/02/06 19:04:49;;;;;;;5.60;3.80;;;;;;;;;;6289150;28;20301;-79